Time;durP1;ratioP1;P1;durP2;ratioP2;P2;SDS_P1;SDS_P2;PMS_P1;PMS_P2;Temp;Humidity;BMP_temperature;BMP_pressure;BME280_temperature;BME280_humidity;BME280_pressure;Samples;Min_cycle;Max_cycle;Signal;HPM_P1;HPM_P2
2021/12/05 00:17:43;;;;;;;2.75;0.77;;;4.80;84.80;;;3.31;94.38;94688.78;4971757;28;20092;-74
2021/12/05 00:23:32;;;;;;;2.35;0.95;;;4.70;84.50;;;3.26;94.33;94691.09;4987453;28;20041;-74
2021/12/05 00:26:01;;;;;;;1.75;1.00;;;4.80;83.90;;;3.22;93.65;94695.06;4986329;28;20056;-74
2021/12/05 00:36:57;;;;;;;2.00;0.93;;;4.70;83.60;;;3.18;93.40;94709.38;4961437;28;20027;-73
2021/12/05 00:41:58;;;;;;;1.95;0.88;;;4.80;82.70;;;3.16;93.15;94700.94;4986870;28;20173;-74
2021/12/05 00:47:35;;;;;;;2.83;1.10;;;4.80;82.70;;;3.13;92.91;94712.50;4983468;28;20041;-73
2021/12/05 00:50:19;;;;;;;2.92;1.27;;;4.70;82.40;;;3.10;92.57;94712.84;4960186;28;20049;-74
2021/12/05 00:53:22;;;;;;;4.90;1.30;;;4.70;82.10;;;3.09;92.67;94711.22;4983519;28;20034;-73
2021/12/05 00:55:59;;;;;;;4.20;1.10;;;4.70;82.30;;;3.06;92.56;94715.00;4985606;28;20105;-73
2021/12/05 01:01:20;;;;;;;5.35;1.42;;;4.70;82.30;;;3.03;92.16;94728.34;4984762;28;20034;-74
2021/12/05 01:04:11;;;;;;;5.68;1.70;;;4.60;82.00;;;2.99;91.88;94737.47;4985325;28;20038;-75
2021/12/05 01:12:35;;;;;;;5.80;1.45;;;4.60;81.70;;;2.93;91.73;94748.53;4937326;29;20171;-73
2021/12/05 01:15:10;;;;;;;3.72;1.58;;;4.60;81.70;;;2.93;91.29;94752.94;4969497;28;20502;-73
2021/12/05 01:17:55;;;;;;;5.95;1.15;;;4.50;81.10;;;2.91;91.13;94766.09;4983639;28;20049;-74
2021/12/05 01:20:22;;;;;;;3.42;1.00;;;4.60;81.60;;;2.90;90.99;94764.47;4976846;28;20041;-74
2021/12/05 01:22:58;;;;;;;4.30;1.20;;;4.60;80.90;;;2.90;91.01;94761.06;4972347;28;20030;-74
2021/12/05 01:25:36;;;;;;;4.60;1.02;;;4.60;81.40;;;2.89;91.03;94755.06;4991814;28;20076;-74
2021/12/05 01:30:55;;;;;;;3.42;1.02;;;4.60;81.00;;;2.86;91.10;94763.22;4989699;28;20041;-74
2021/12/05 01:33:35;;;;;;;2.78;1.05;;;4.60;81.20;;;2.83;91.20;94755.78;4973917;28;20057;-74
2021/12/05 01:36:29;;;;;;;2.50;1.02;;;4.40;81.10;;;2.80;90.82;94756.13;4946000;28;20054;-74
2021/12/05 01:52:23;;;;;;;4.30;1.20;;;4.20;80.80;;;2.63;90.37;94772.78;4990679;28;20043;-74
2021/12/05 02:32:48;;;;;;;2.70;1.05;;;4.10;82.20;;;2.43;91.10;94752.47;4989333;28;20121;-72
2021/12/05 02:38:06;;;;;;;2.33;0.90;;;4.20;81.90;;;2.47;91.45;94763.31;4982348;28;20030;-72
2021/12/05 02:43:27;;;;;;;1.20;0.82;;;4.10;82.20;;;2.44;91.54;94774.03;4986700;28;20042;-73
2021/12/05 02:45:57;;;;;;;2.10;0.93;;;4.10;82.40;;;2.45;91.95;94779.06;4959397;28;20034;-70
2021/12/05 02:48:25;;;;;;;3.00;0.80;;;4.20;82.60;;;2.45;91.92;94781.66;4956487;28;20498;-73
2021/12/05 02:50:51;;;;;;;1.95;1.05;;;4.20;82.70;;;2.46;91.96;94788.47;4932231;28;20050;-74
2021/12/05 02:53:20;;;;;;;2.63;0.98;;;4.20;83.00;;;2.43;91.75;94781.03;4988007;28;20117;-73
2021/12/05 02:55:47;;;;;;;2.40;0.73;;;4.10;83.10;;;2.43;92.32;94788.81;4986464;28;20026;-72
2021/12/05 02:58:31;;;;;;;2.58;0.70;;;4.10;83.10;;;2.40;92.69;94789.16;4969798;28;20046;-73
2021/12/05 03:03:32;;;;;;;2.05;0.60;;;4.10;82.90;;;2.33;92.62;94782.22;4985976;28;20042;-72
2021/12/05 03:06:27;;;;;;;2.50;0.60;;;4.00;82.60;;;2.33;92.24;94793.41;4962782;28;20030;-73
2021/12/05 03:09:00;;;;;;;2.25;0.70;;;4.10;82.60;;;2.31;92.33;94785.00;4986109;28;20030;-74
2021/12/05 03:11:27;;;;;;;0.82;0.47;;;4.00;82.50;;;2.30;92.43;94790.34;4967278;28;20042;-74
2021/12/05 03:13:53;;;;;;;2.60;0.60;;;4.00;82.90;;;2.29;92.73;94786.16;4986359;28;20034;-71
2021/12/05 03:16:19;;;;;;;1.63;0.70;;;4.00;83.10;;;2.28;92.98;94790.53;4973310;28;20041;-72
2021/12/05 03:18:45;;;;;;;1.83;0.75;;;4.00;83.00;;;2.25;92.94;94796.03;4985586;28;20061;-74
2021/12/05 03:21:11;;;;;;;2.13;0.60;;;4.00;83.50;;;2.27;92.95;94804.47;4966503;28;20082;-72
2021/12/05 03:23:39;;;;;;;1.60;0.60;;;4.00;83.10;;;2.23;93.06;94798.00;4951205;28;20168;-74
2021/12/05 03:26:07;;;;;;;3.08;0.70;;;3.90;83.60;;;2.23;93.07;94800.59;4987681;28;20109;-73
2021/12/05 03:28:32;;;;;;;2.15;0.82;;;4.00;83.40;;;2.23;93.34;94803.19;4982314;28;20034;-73
2021/12/05 03:30:59;;;;;;;2.20;0.70;;;4.00;83.30;;;2.22;93.46;94806.75;4988268;28;20041;-73
2021/12/05 03:33:24;;;;;;;2.88;1.00;;;4.00;83.30;;;2.20;93.63;94808.72;4968998;28;20067;-74
2021/12/05 03:35:50;;;;;;;3.72;0.82;;;4.00;83.50;;;2.17;93.47;94809.03;4985996;28;20498;-73
2021/12/05 03:38:16;;;;;;;2.10;0.88;;;3.90;83.60;;;2.13;93.75;94815.56;4985892;28;20478;-74
2021/12/05 03:40:42;;;;;;;1.83;0.80;;;3.90;83.60;;;2.09;93.87;94809.91;4982260;28;20089;-74
2021/12/05 03:43:09;;;;;;;2.67;0.82;;;3.90;84.10;;;2.08;93.63;94815.25;4970570;28;20045;-73
2021/12/05 03:45:41;;;;;;;2.45;0.88;;;3.80;83.80;;;2.03;93.76;94815.75;4968084;28;20077;-74
2021/12/05 03:48:06;;;;;;;2.15;1.10;;;3.70;84.10;;;2.01;94.19;94824.66;4969082;28;20046;-73
2021/12/05 03:50:32;;;;;;;3.78;0.95;;;3.80;83.90;;;1.98;94.29;94814.63;4972219;28;20526;-73
2021/12/05 03:52:58;;;;;;;2.13;0.75;;;3.70;84.00;;;1.93;93.96;94822.09;4986813;28;20026;-73
2021/12/05 03:55:24;;;;;;;2.42;0.80;;;3.70;84.40;;;1.93;94.05;94809.16;4989207;28;20042;-73
2021/12/05 03:57:50;;;;;;;3.05;0.90;;;3.70;83.90;;;1.89;94.27;94820.84;4955325;28;20042;-73
2021/12/05 04:00:28;;;;;;;3.00;1.33;;;3.60;84.40;;;1.86;94.36;94816.00;4985326;28;20828;-73
2021/12/05 04:02:55;;;;;;;3.17;0.75;;;3.60;84.20;;;1.84;93.71;94816.97;4954447;28;20030;-73
2021/12/05 04:05:21;;;;;;;5.35;1.00;;;3.60;84.30;;;1.84;93.85;94814.38;4986306;28;20106;-73
2021/12/05 04:07:47;;;;;;;2.08;0.70;;;3.60;83.90;;;1.82;94.09;94811.13;4985513;28;20506;-73
2021/12/05 04:10:13;;;;;;;2.83;0.65;;;3.60;83.40;;;1.84;93.86;94814.38;4987077;28;20042;-72
2021/12/05 04:12:39;;;;;;;3.38;0.88;;;3.60;83.10;;;1.83;93.77;94807.56;4969437;28;20034;-74
2021/12/05 04:15:06;;;;;;;1.77;0.70;;;3.60;83.20;;;1.83;93.25;94812.75;4987047;28;20045;-74
2021/12/05 04:17:31;;;;;;;4.35;0.80;;;3.60;82.70;;;1.83;92.86;94815.34;4970257;28;20450;-74
2021/12/05 04:19:57;;;;;;;2.15;0.90;;;3.60;82.40;;;1.83;93.51;94812.75;4967971;28;20058;-74
2021/12/05 04:22:23;;;;;;;8.15;1.10;;;3.60;82.00;;;1.82;92.75;94813.72;4983370;28;20038;-73
2021/12/05 04:24:49;;;;;;;2.97;1.00;;;3.60;82.00;;;1.80;92.42;94802.69;4978715;28;20081;-73
2021/12/05 04:27:15;;;;;;;3.53;0.80;;;3.60;82.20;;;1.78;92.41;94799.47;4948436;28;20038;-74
2021/12/05 04:29:41;;;;;;;4.30;0.90;;;3.60;81.50;;;1.76;91.88;94804.00;4970581;28;20038;-74
2021/12/05 04:32:07;;;;;;;4.53;0.88;;;3.60;81.50;;;1.74;91.98;94798.19;4986357;28;20084;-74
2021/12/05 04:34:33;;;;;;;4.45;0.88;;;3.50;81.50;;;1.75;92.59;94796.41;4985135;28;20038;-75
2021/12/05 04:36:59;;;;;;;2.80;0.70;;;3.60;81.30;;;1.73;91.83;94786.19;4987605;28;20041;-73
2021/12/05 04:39:25;;;;;;;8.82;1.02;;;3.60;81.30;;;1.72;91.95;94789.75;4967715;28;20038;-74
2021/12/05 04:41:52;;;;;;;3.08;0.90;;;3.50;81.50;;;1.71;92.08;94787.34;4985007;28;20038;-75
2021/12/05 04:44:18;;;;;;;2.70;0.73;;;3.50;81.40;;;1.69;91.82;94792.69;4953440;28;20038;-74
2021/12/05 04:46:44;;;;;;;3.78;0.70;;;3.50;81.60;;;1.67;91.63;94784.28;4982209;28;20106;-74
2021/12/05 04:49:09;;;;;;;4.60;0.88;;;3.40;81.60;;;1.65;92.26;94778.47;4980611;28;20133;-73
2021/12/05 04:51:38;;;;;;;4.13;1.15;;;3.40;81.80;;;1.64;92.38;94792.41;4954485;28;20046;-73
2021/12/05 04:54:05;;;;;;;1.45;0.70;;;3.40;81.90;;;1.62;91.56;94789.16;4984738;28;20188;-73
2021/12/05 04:56:31;;;;;;;3.35;0.80;;;3.40;81.80;;;1.61;92.02;94777.19;4965340;28;20045;-73
2021/12/05 04:58:57;;;;;;;4.28;0.60;;;3.40;82.10;;;1.62;92.36;94772.81;4970277;28;20039;-73
2021/12/05 05:01:23;;;;;;;2.40;0.63;;;3.40;81.60;;;1.58;92.10;94777.47;4985697;28;20050;-73
2021/12/05 05:03:50;;;;;;;4.82;1.10;;;3.30;81.90;;;1.55;92.05;94772.63;4985655;28;20058;-74
2021/12/05 05:06:18;;;;;;;4.82;0.85;;;3.30;82.00;;;1.57;91.43;94773.28;4971693;28;20508;-74
2021/12/05 05:08:46;;;;;;;4.07;0.85;;;3.40;81.90;;;1.54;91.66;94771.84;4972777;28;20117;-74
2021/12/05 05:11:13;;;;;;;5.82;1.10;;;3.30;81.70;;;1.53;91.73;94774.59;4968389;28;20074;-74
2021/12/05 05:13:39;;;;;;;3.75;0.60;;;3.30;81.70;;;1.53;92.02;94769.41;4959808;28;20450;-74
2021/12/05 05:16:06;;;;;;;2.70;0.75;;;3.30;81.90;;;1.51;91.95;94766.19;4968647;28;20056;-71
2021/12/05 05:18:46;;;;;;;3.70;1.00;;;3.40;81.80;;;1.50;91.65;94780.09;4998789;28;20588;-74
2021/12/05 05:43:22;;;;;;;8.90;1.25;;;3.30;82.10;;;1.42;91.88;94769.78;4986458;28;20050;-73
2021/12/05 05:48:30;;;;;;;5.43;1.00;;;3.30;81.80;;;1.44;92.36;94770.41;4964746;28;20062;-71
2021/12/05 05:50:55;;;;;;;3.78;1.05;;;3.40;81.70;;;1.44;92.42;94780.78;4977495;28;20031;-72
2021/12/05 05:53:21;;;;;;;5.35;1.10;;;3.40;81.70;;;1.43;91.98;94779.16;4952347;28;20093;-72
2021/12/05 05:55:48;;;;;;;3.92;0.85;;;3.40;81.40;;;1.42;92.33;94775.75;4987463;28;20069;-74
2021/12/05 05:58:16;;;;;;;3.67;0.95;;;3.40;81.50;;;1.41;92.10;94786.28;4956022;28;22923;-73
2021/12/05 06:01:05;;;;;;;3.47;1.05;;;3.30;81.60;;;1.38;91.72;94782.25;4992179;28;20034;-73
2021/12/05 06:03:30;;;;;;;4.32;1.50;;;3.20;81.70;;;1.34;92.26;94785.31;4986989;28;20129;-74
2021/12/05 06:05:57;;;;;;;5.38;1.30;;;3.10;82.10;;;1.32;91.54;94787.25;4974966;28;20042;-73
2021/12/05 06:08:25;;;;;;;6.72;2.65;;;3.10;82.20;;;1.28;92.40;94788.56;4978186;28;20409;-73
2021/12/05 06:11:00;;;;;;;10.07;3.75;;;3.10;82.30;;;1.27;92.33;94784.34;4972337;28;20382;-73
2021/12/05 06:13:27;;;;;;;11.85;5.22;;;3.10;82.40;;;1.25;92.25;94786.31;4979328;28;20043;-74
2021/12/05 06:15:53;;;;;;;8.00;3.75;;;3.10;82.40;;;1.23;91.85;94789.06;4973293;28;20046;-73
2021/12/05 06:18:18;;;;;;;10.90;3.58;;;3.10;82.30;;;1.19;92.63;94786.00;4989943;28;20054;-73
2021/12/05 06:20:44;;;;;;;9.15;3.28;;;3.00;82.50;;;1.16;92.58;94786.31;4974801;28;20061;-73
2021/12/05 06:23:11;;;;;;;5.85;2.35;;;3.00;82.60;;;1.15;91.94;94789.88;4971247;28;20084;-73
2021/12/05 06:25:38;;;;;;;7.00;2.03;;;2.90;82.50;;;1.15;92.87;94804.63;4961516;28;20568;-75
2021/12/05 06:28:10;;;;;;;6.32;2.08;;;3.00;82.50;;;1.11;92.80;94796.34;4980536;28;20080;-73
2021/12/05 06:46:16;;;;;;;5.00;1.40;;;2.90;83.10;;;1.02;92.88;94823.22;4954685;28;20473;-70
2021/12/05 06:48:43;;;;;;;8.13;1.80;;;2.90;82.90;;;1.03;92.62;94827.44;4984712;28;20035;-74
2021/12/05 06:51:10;;;;;;;5.63;1.60;;;2.80;83.00;;;1.02;92.76;94823.22;4961384;28;20101;-74
2021/12/05 06:53:36;;;;;;;5.47;1.92;;;2.80;83.00;;;1.01;92.63;94821.59;4957484;28;20494;-74
2021/12/05 06:56:03;;;;;;;7.47;1.88;;;2.80;83.10;;;1.02;92.81;94822.41;4960823;28;20121;-77
2021/12/05 06:58:31;;;;;;;5.28;1.98;;;2.90;83.10;;;1.02;93.51;94828.41;4966728;28;20042;-68
2021/12/05 07:00:56;;;;;;;6.78;2.05;;;2.90;83.00;;;1.01;92.91;94821.59;4972568;28;20038;-67
2021/12/05 07:03:22;;;;;;;7.95;2.13;;;2.90;83.00;;;1.02;92.59;94828.41;4972941;28;20038;-68
2021/12/05 07:08:22;;;;;;;7.50;2.38;;;2.90;82.90;;;1.00;93.30;94832.94;4973971;28;20045;-66
2021/12/05 07:10:57;;;;;;;4.78;2.05;;;2.80;83.00;;;0.98;93.63;94821.94;4989940;28;20038;-68
2021/12/05 07:16:06;;;;;;;6.18;1.92;;;2.80;83.00;;;0.99;92.69;94833.91;4982731;28;20035;-67
2021/12/05 07:21:20;;;;;;;6.15;2.38;;;2.80;83.10;;;0.99;93.01;94839.06;4986655;28;20038;-68
2021/12/05 07:24:03;;;;;;;6.22;2.20;;;2.80;83.00;;;1.00;92.96;94838.09;4970128;28;20660;-69
2021/12/05 07:26:45;;;;;;;6.22;2.40;;;2.80;82.90;;;1.02;93.03;94841.34;4989676;28;20046;-68
2021/12/05 07:40:28;;;;;;;9.45;4.40;;;3.20;82.30;;;1.21;93.03;94838.44;4974073;28;20065;-70
2021/12/05 07:43:06;;;;;;;7.93;3.03;;;3.30;82.00;;;1.28;93.19;94830.00;4955597;28;20830;-72
2021/12/05 07:45:40;;;;;;;6.47;2.70;;;3.30;81.60;;;1.34;93.19;94826.75;4964584;28;20034;-70
2021/12/05 07:48:11;;;;;;;6.03;2.58;;;3.50;81.60;;;1.41;92.65;94827.75;4957587;28;20129;-70
2021/12/05 07:50:49;;;;;;;;;;;3.60;81.30;;;1.48;94.01;94823.50;4973749;28;20077;-75
2021/12/05 07:53:23;;;;;;;7.32;3.42;;;3.80;81.30;;;1.52;93.52;94811.84;4980750;28;19936;-72
2021/12/05 07:55:52;;;;;;;10.45;4.95;;;3.80;80.80;;;1.62;92.79;94820.25;4964453;28;20117;-70
2021/12/05 07:58:57;;;;;;;10.90;5.53;;;3.90;80.30;;;1.71;93.47;94813.25;5001484;28;20128;-69
2021/12/05 08:15:14;;;;;;;6.80;2.30;;;4.70;78.10;;;2.26;92.15;94823.59;4956223;28;20093;-74
2021/12/05 08:17:40;;;;;;;7.40;2.22;;;4.90;77.40;;;2.36;91.90;94823.41;4985199;28;20133;-73
2021/12/05 08:20:09;;;;;;;6.35;1.77;;;4.90;77.00;;;2.44;91.66;94813.78;4987880;28;20038;-71
2021/12/05 08:22:35;;;;;;;6.45;1.88;;;5.00;76.60;;;2.52;91.77;94817.31;4971616;28;20023;-74
2021/12/05 08:25:09;;;;;;;5.38;2.15;;;5.10;76.30;;;2.59;90.48;94815.66;4972102;28;20026;-75
2021/12/05 08:27:36;;;;;;;6.93;2.45;;;5.10;76.00;;;2.66;90.52;94819.97;4987222;28;20061;-72
2021/12/05 08:30:09;;;;;;;6.82;2.90;;;5.10;75.90;;;2.72;90.27;94806.34;4976961;28;20034;-70
2021/12/05 08:35:17;;;;;;;6.05;2.78;;;5.40;75.40;;;2.87;89.97;94811.56;4994493;28;20043;-71
2021/12/05 08:43:33;;;;;;;7.70;4.93;;;5.60;74.80;;;3.12;89.50;94811.38;4970260;28;20037;-69
2021/12/05 08:46:19;;;;;;;6.70;1.95;;;5.70;74.70;;;3.18;88.81;94805.50;4970494;28;20097;-70
2021/12/05 10:14:42;;;;;;;4.78;1.58;;;6.80;67.80;;;4.67;81.25;94826.16;4958594;28;20096;-69
2021/12/05 10:34:38;;;;;;;3.63;1.40;;;6.50;68.30;;;4.47;79.29;94811.09;4987548;28;20222;-71
2021/12/05 10:37:08;;;;;;;4.65;1.40;;;6.60;69.10;;;4.44;78.77;94814.06;4959186;28;20042;-73
2021/12/05 10:39:34;;;;;;;6.00;2.55;;;6.60;68.90;;;4.44;79.54;94805.47;4941947;28;20152;-70
2021/12/05 10:42:35;;;;;;;5.18;2.70;;;6.60;68.60;;;4.44;79.01;94805.47;4989822;28;20502;-75
2021/12/05 10:44:46;;;;;;;5.53;2.20;;;6.60;68.70;;;4.44;79.59;94808.06;4962646;28;20062;-73
2021/12/05 10:47:12;;;;;;;4.57;2.05;;;6.60;69.40;;;4.44;79.69;94795.84;4956084;28;20070;-73
2021/12/05 10:49:38;;;;;;;3.53;1.40;;;6.60;68.20;;;4.39;79.44;94803.41;4955935;28;20042;-71
2021/12/05 10:52:04;;;;;;;5.28;1.95;;;6.50;68.70;;;4.40;79.78;94805.03;4971411;28;20129;-73
2021/12/05 10:54:30;;;;;;;9.85;5.57;;;6.60;69.00;;;4.44;79.23;94805.47;4975313;28;20062;-70
2021/12/05 10:57:04;;;;;;;7.63;4.40;;;6.60;69.00;;;4.44;78.33;94797.66;4989672;28;20064;-76
2021/12/05 10:59:37;;;;;;;5.65;3.10;;;6.60;68.30;;;4.46;78.68;94808.69;4986920;28;20034;-68
2021/12/05 11:02:20;;;;;;;5.95;2.47;;;6.60;68.20;;;4.50;78.75;94802.13;4951718;28;20035;-69
2021/12/05 11:04:47;;;;;;;5.90;1.70;;;6.70;68.80;;;4.53;79.09;94805.19;4956802;28;20035;-70
2021/12/05 11:07:19;;;;;;;5.65;2.15;;;6.80;68.90;;;4.54;78.94;94801.59;4942168;28;20045;-73
2021/12/05 11:09:46;;;;;;;6.78;2.85;;;6.70;68.30;;;4.54;79.19;94796.38;4981262;28;20049;-73
2021/12/05 11:12:19;;;;;;;6.10;3.00;;;6.70;68.40;;;4.59;79.09;94808.84;4950218;28;20081;-70
2021/12/05 11:14:53;;;;;;;6.47;3.63;;;6.80;68.40;;;4.62;78.66;94803.25;4972453;28;20038;-69
2021/12/05 11:17:33;;;;;;;6.35;2.08;;;6.80;69.10;;;4.63;77.44;94810.09;4973975;28;20103;-71
2021/12/05 11:20:11;;;;;;;4.85;1.70;;;6.80;68.30;;;4.61;77.77;94809.47;4946235;28;20035;-70
2021/12/05 11:22:42;;;;;;;6.13;1.83;;;6.60;67.80;;;4.59;77.99;94811.44;4982912;28;20034;-71
2021/12/05 11:25:19;;;;;;;3.65;1.52;;;6.60;68.00;;;4.58;78.33;94802.84;4956812;28;20112;-71
2021/12/05 11:27:46;;;;;;;5.20;1.98;;;6.70;68.20;;;4.59;78.96;94803.63;4967468;28;20506;-70
2021/12/05 11:30:17;;;;;;;4.38;1.98;;;6.70;68.00;;;4.60;78.54;94815.66;4980290;28;20042;-71
2021/12/05 11:32:57;;;;;;;4.95;2.00;;;6.80;68.50;;;4.62;78.67;94811.06;4980220;28;20034;-72
2021/12/05 11:36:01;;;;;;;6.32;2.33;;;6.80;68.30;;;4.64;76.69;94811.69;4983202;28;20046;-69
2021/12/05 11:38:31;;;;;;;6.68;1.83;;;6.90;67.60;;;4.59;77.61;94814.06;4949022;28;20046;-71
2021/12/05 11:41:06;;;;;;;4.53;1.88;;;6.60;66.90;;;4.56;77.06;94804.00;4934489;28;20412;-72
2021/12/05 11:43:39;;;;;;;3.95;1.70;;;6.60;67.50;;;4.56;77.71;94804.00;4976330;28;20549;-71
2021/12/05 11:46:14;;;;;;;4.22;1.27;;;6.60;68.10;;;4.55;78.03;94802.41;4975298;28;20117;-72
2021/12/05 11:48:43;;;;;;;5.45;1.67;;;6.60;67.60;;;4.54;76.73;94808.59;4972122;28;20037;-72
2021/12/05 11:51:46;;;;;;;7.60;2.00;;;6.60;67.60;;;4.56;77.44;94804.81;4952984;28;20039;-72
2021/12/05 11:54:26;;;;;;;3.97;1.40;;;6.70;68.40;;;4.56;76.62;94810.03;4969150;28;20034;-73
2021/12/05 11:56:58;;;;;;;4.97;1.80;;;6.70;67.70;;;4.59;77.47;94798.44;4981580;28;20467;-73
2021/12/05 11:59:33;;;;;;;6.90;2.00;;;6.70;68.10;;;4.63;77.87;94804.88;4977186;28;20116;-69
2021/12/05 12:02:06;;;;;;;5.57;1.80;;;6.80;68.10;;;4.60;77.08;94800.03;4978893;28;20042;-70
2021/12/05 12:04:37;;;;;;;8.30;1.88;;;6.70;66.90;;;4.63;77.68;94801.47;4959097;28;20049;-71
2021/12/05 12:07:25;;;;;;;5.45;2.33;;;6.70;68.10;;;4.64;77.05;94803.88;4989806;28;20077;-70
2021/12/05 12:09:59;;;;;;;5.45;2.38;;;6.70;68.50;;;4.63;77.80;94802.28;4982606;28;20129;-75
2021/12/05 12:12:24;;;;;;;8.10;3.13;;;6.80;67.90;;;4.63;77.98;94794.47;4972115;28;20267;-71
2021/12/05 12:14:50;;;;;;;6.20;2.80;;;6.80;67.70;;;4.65;77.49;94796.88;4971411;28;20118;-68
2021/12/05 12:17:17;;;;;;;4.30;2.20;;;6.80;67.60;;;4.65;77.16;94796.88;4960121;28;20046;-68
2021/12/05 12:19:48;;;;;;;5.78;2.45;;;6.80;67.00;;;4.68;77.48;94796.50;4971384;28;20038;-72
2021/12/05 12:22:16;;;;;;;6.75;2.88;;;6.90;67.40;;;4.69;77.62;94804.13;4976973;28;20049;-69
2021/12/05 12:24:42;;;;;;;7.20;2.65;;;6.90;67.60;;;4.70;77.58;94797.13;4984165;28;20035;-69
2021/12/05 12:27:08;;;;;;;7.18;2.20;;;6.90;67.50;;;4.69;76.94;94798.94;4955885;28;20041;-69
2021/12/05 12:29:34;;;;;;;7.18;1.98;;;6.90;67.10;;;4.71;76.39;94801.34;4977127;28;20038;-71
2021/12/05 12:32:12;;;;;;;5.78;1.90;;;6.80;67.00;;;4.69;76.83;94793.72;4981188;28;20069;-69
2021/12/05 12:34:39;;;;;;;4.47;1.70;;;6.80;67.10;;;4.67;76.65;94785.28;4964586;28;20532;-68
2021/12/05 12:37:06;;;;;;;5.43;1.48;;;6.80;66.60;;;4.66;76.38;94788.88;4971716;28;20494;-70
2021/12/05 12:39:32;;;;;;;5.97;1.65;;;6.90;66.60;;;4.68;75.91;94799.13;4977749;28;20074;-70
2021/12/05 12:42:13;;;;;;;6.45;1.65;;;6.80;66.10;;;4.65;75.30;94787.28;4978156;28;20062;-71
2021/12/05 12:45:08;;;;;;;7.53;2.40;;;6.80;66.20;;;4.60;74.88;94789.63;4970629;28;20041;-72
2021/12/05 12:47:40;;;;;;;4.85;1.90;;;6.60;65.90;;;4.58;75.44;94792.41;4990468;28;20067;-73
2021/12/05 12:50:36;;;;;;;6.90;1.52;;;6.70;66.50;;;4.61;76.21;94791.25;4988798;28;20130;-72
2021/12/05 12:53:15;;;;;;;4.55;1.60;;;6.80;66.90;;;4.62;75.73;94792.84;4969783;28;20038;-71
2021/12/05 12:56:04;;;;;;;5.80;1.42;;;6.80;67.30;;;4.64;76.32;94796.06;4953359;28;20056;-71
2021/12/05 12:58:55;;;;;;;4.35;1.50;;;6.90;67.10;;;4.64;75.03;94796.06;4952899;28;20359;-70
2021/12/05 13:04:37;;;;;;;4.28;1.23;;;6.90;66.50;;;4.65;75.60;94792.47;4974499;28;20448;-71
2021/12/05 13:12:41;;;;;;;5.35;1.60;;;6.70;65.50;;;4.63;74.65;94789.25;4982550;28;20046;-73
2021/12/05 13:15:22;;;;;;;4.50;1.52;;;6.70;65.90;;;4.63;75.65;94794.47;4984300;28;20042;-74
2021/12/05 13:18:07;;;;;;;4.03;1.50;;;6.80;66.20;;;4.64;74.59;94796.06;4982378;28;20038;-70
2021/12/05 13:20:47;;;;;;;4.13;2.35;;;6.80;66.20;;;4.65;74.95;94802.91;4992119;28;20188;-72
2021/12/05 13:23:35;;;;;;;4.25;1.80;;;6.80;66.40;;;4.62;75.57;94792.84;4986996;28;20042;-70
2021/12/05 13:26:12;;;;;;;4.32;1.83;;;6.80;66.70;;;4.61;75.81;94797.25;4975462;28;20549;-72
2021/12/05 13:28:44;;;;;;;7.25;3.42;;;6.80;66.40;;;4.59;75.58;94799.25;4991047;28;20117;-70
2021/12/05 13:31:30;;;;;;;7.53;3.83;;;6.70;66.00;;;4.59;74.86;94798.44;4984312;28;20116;-73
2021/12/05 13:34:22;;;;;;;6.70;3.30;;;6.70;66.10;;;4.58;75.68;94804.63;4985970;28;20037;-69
2021/12/05 13:37:00;;;;;;;7.38;3.45;;;6.70;66.50;;;4.56;74.93;94799.59;4972633;28;20030;-70
2021/12/05 13:39:47;;;;;;;7.68;3.42;;;6.60;66.30;;;4.52;75.82;94802.75;4983138;28;20046;-71
2021/12/05 13:42:34;;;;;;;5.10;2.40;;;6.60;67.20;;;4.54;75.53;94800.78;4984856;28;20230;-71
2021/12/05 13:45:01;;;;;;;7.07;2.17;;;6.60;67.40;;;4.52;76.03;94800.94;4979019;28;20493;-73
2021/12/05 13:47:38;;;;;;;5.93;1.30;;;6.70;67.60;;;4.52;76.18;94797.53;4991361;28;20536;-74
2021/12/05 13:50:18;;;;;;;4.30;1.60;;;6.70;66.80;;;4.53;75.97;94802.59;4976802;28;20039;-73
2021/12/05 13:52:52;;;;;;;5.80;2.05;;;6.70;66.90;;;4.52;75.76;94807.94;4978527;28;20466;-71
2021/12/05 13:55:42;;;;;;;3.60;1.63;;;6.70;66.30;;;4.51;75.63;94804.53;4972420;28;20078;-72
2021/12/05 13:58:41;;;;;;;6.32;2.00;;;6.60;67.30;;;4.51;75.10;94806.34;4947393;28;20038;-71
2021/12/05 14:01:22;;;;;;;6.50;2.10;;;6.60;66.50;;;4.48;75.72;94809.31;4988319;28;20043;-71
2021/12/05 14:04:07;;;;;;;4.80;2.60;;;6.60;66.60;;;4.48;75.82;94814.50;4972586;28;20034;-72
2021/12/05 14:06:58;;;;;;;5.38;2.47;;;6.60;66.90;;;4.47;75.97;94805.09;4975869;28;20026;-71
2021/12/05 14:09:46;;;;;;;4.90;2.10;;;6.60;66.70;;;4.46;75.52;94811.28;4991026;28;20026;-71
2021/12/05 14:12:27;;;;;;;4.78;1.83;;;6.60;66.90;;;4.44;75.35;94821.88;4961907;28;20184;-70
2021/12/05 14:14:59;;;;;;;5.30;2.10;;;6.50;66.70;;;4.42;75.72;94820.47;4975341;28;20061;-70
2021/12/05 14:17:30;;;;;;;5.75;2.03;;;6.50;66.50;;;4.37;75.12;94813.19;4963533;28;20069;-71
2021/12/05 14:20:05;;;;;;;6.93;2.08;;;6.50;66.50;;;4.36;74.83;94813.38;4985690;28;20351;-71
2021/12/05 14:22:34;;;;;;;7.45;2.20;;;6.40;66.60;;;4.33;75.79;94819.75;4958810;28;20030;-74
2021/12/05 14:25:05;;;;;;;6.47;2.20;;;6.40;67.00;;;4.32;75.40;94817.34;4958921;28;20038;-71
2021/12/05 14:27:34;;;;;;;8.05;3.25;;;6.40;67.00;;;4.31;75.81;94808.72;4984751;28;20038;-72
2021/12/05 14:30:01;;;;;;;6.65;2.90;;;6.40;67.60;;;4.29;76.04;94814.09;4973077;28;20094;-71
2021/12/05 14:32:33;;;;;;;6.90;1.92;;;6.40;68.00;;;4.28;76.21;94812.47;4983127;28;20066;-72
2021/12/05 14:35:22;;;;;;;5.53;2.58;;;6.40;67.90;;;4.27;76.51;94823.88;4977529;28;20034;-74
2021/12/05 14:37:49;;;;;;;6.28;2.15;;;6.40;68.20;;;4.24;76.27;94824.25;4940790;28;20054;-71
2021/12/05 14:40:35;;;;;;;4.75;1.90;;;6.40;68.30;;;4.20;75.85;94825.59;4970715;28;20049;-71
2021/12/05 14:43:06;;;;;;;5.32;1.98;;;6.30;68.10;;;4.18;76.63;94832.78;4956064;28;20039;-73
2021/12/05 14:45:36;;;;;;;7.38;1.40;;;6.40;68.10;;;4.17;77.04;94836.38;4987519;28;20085;-74
2021/12/05 14:48:03;;;;;;;3.88;1.33;;;6.30;68.20;;;4.16;76.78;94839.16;4973347;28;20703;-71
2021/12/05 14:50:31;;;;;;;6.63;2.17;;;6.30;68.50;;;4.13;76.99;94829.91;4968930;28;20070;-72
2021/12/05 14:53:02;;;;;;;11.73;6.28;;;6.30;68.30;;;4.12;76.51;94837.91;4958934;28;20510;-72
2021/12/05 14:55:30;;;;;;;22.27;14.45;;;6.20;68.20;;;4.10;77.36;94845.91;4990014;28;20034;-73
2021/12/05 14:58:07;;;;;;;58.88;38.22;;;6.20;68.90;;;4.07;78.20;94846.22;4955086;28;20355;-71
2021/12/05 15:00:51;;;;;;;121.88;73.60;;;6.10;69.90;;;4.04;78.00;94853.59;4956425;28;20054;-72
2021/12/05 15:03:22;;;;;;;21.02;11.60;;;6.10;70.50;;;3.99;78.41;94856.72;4971564;28;20058;-71
2021/12/05 15:05:56;;;;;;;10.77;3.78;;;6.10;71.30;;;3.95;79.11;94852.88;4970910;28;20034;-70
2021/12/05 15:08:23;;;;;;;5.68;1.90;;;6.00;71.90;;;3.91;79.60;94851.63;4986653;28;20070;-71
2021/12/05 15:10:57;;;;;;;6.85;1.52;;;6.00;72.40;;;3.87;79.63;94855.56;4957372;28;20031;-71
2021/12/05 15:13:22;;;;;;;2.45;1.30;;;5.90;72.60;;;3.84;80.51;94855.91;4971694;28;20037;-70
2021/12/05 15:15:49;;;;;;;4.68;1.40;;;5.90;72.90;;;3.81;80.28;94861.47;4971706;28;20043;-72
2021/12/05 15:18:17;;;;;;;2.55;1.27;;;5.90;73.40;;;3.78;81.31;94861.81;4970435;28;20031;-72
2021/12/05 15:20:45;;;;;;;8.60;1.75;;;5.80;74.20;;;3.73;81.72;94867.56;4974504;28;20117;-73
2021/12/05 15:23:11;;;;;;;4.88;1.63;;;5.70;74.90;;;3.65;81.89;94867.66;4987950;28;20043;-72
2021/12/05 15:25:39;;;;;;;3.63;1.20;;;5.70;75.30;;;3.57;82.49;94871.09;4954845;28;20039;-72
2021/12/05 15:28:05;;;;;;;5.53;2.00;;;5.60;75.50;;;3.54;82.98;94868.84;4971450;28;20576;-71
2021/12/05 15:30:37;;;;;;;6.28;2.50;;;5.50;75.80;;;3.48;83.40;94877.38;4966364;28;20034;-74
2021/12/05 15:33:12;;;;;;;7.20;2.17;;;5.50;75.80;;;3.44;83.34;94872.69;4967633;28;20026;-72
2021/12/05 15:35:38;;;;;;;4.22;1.70;;;5.40;75.60;;;3.38;82.63;94871.59;4989234;28;20031;-73
2021/12/05 15:38:15;;;;;;;6.07;1.50;;;5.40;75.60;;;3.35;83.24;94877.13;4962807;28;20158;-72
2021/12/05 15:40:44;;;;;;;3.80;1.60;;;5.40;75.20;;;3.32;83.13;94887.88;4998593;28;20030;-72
2021/12/05 15:43:14;;;;;;;5.30;1.60;;;5.30;75.20;;;3.26;83.46;94885.97;4972845;28;20026;-72
2021/12/05 15:45:42;;;;;;;7.05;1.73;;;5.30;75.30;;;3.24;83.23;94885.34;4944236;28;20023;-73
2021/12/05 15:48:07;;;;;;;6.50;2.00;;;5.20;75.20;;;3.21;83.05;94883.09;4974112;28;20094;-73
2021/12/05 15:50:37;;;;;;;5.60;2.08;;;5.20;75.20;;;3.19;83.48;94878.09;4973756;28;20478;-71
2021/12/05 15:53:10;;;;;;;8.25;2.78;;;5.20;75.00;;;3.19;83.65;94885.06;4984236;28;20074;-71